Time;durP1;ratioP1;P1;durP2;ratioP2;P2;SDS_P1;SDS_P2;PMS_P1;PMS_P2;Temp;Humidity;BMP_temperature;BMP_pressure;BME280_temperature;BME280_humidity;BME280_pressure;Samples;Min_cycle;Max_cycle;Signal;HPM_P1;HPM_P2
2023/11/01 00:00:47;;;;;;;9.18;4.13;;;;;;;;;;4971947;28;20706;-66
2023/11/01 00:03:13;;;;;;;10.32;4.18;;;;;;;;;;4969688;28;20199;-66
2023/11/01 00:05:39;;;;;;;8.50;4.53;;;;;;;;;;4959268;28;20193;-66
2023/11/01 00:08:04;;;;;;;9.48;4.45;;;;;;;;;;4966387;28;20184;-66
2023/11/01 00:10:29;;;;;;;10.32;3.53;;;;;;;;;;4965741;28;20214;-66
2023/11/01 00:12:54;;;;;;;15.32;4.15;;;;;;;;;;4961554;28;20385;-66
2023/11/01 00:15:19;;;;;;;11.85;4.00;;;;;;;;;;4970447;28;20710;-67
2023/11/01 00:17:45;;;;;;;9.55;3.83;;;;;;;;;;4967493;28;20220;-67
2023/11/01 00:20:10;;;;;;;7.28;4.07;;;;;;;;;;4967296;28;20177;-67
2023/11/01 00:22:35;;;;;;;8.38;4.20;;;;;;;;;;4960700;28;20180;-67
2023/11/01 00:25:00;;;;;;;7.68;4.50;;;;;;;;;;4943656;28;20207;-66
2023/11/01 00:27:30;;;;;;;11.52;4.72;;;;;;;;;;4954696;28;20190;-66
2023/11/01 00:29:56;;;;;;;11.93;5.30;;;;;;;;;;4966431;28;20639;-67
2023/11/01 00:32:21;;;;;;;11.75;5.07;;;;;;;;;;4967979;28;20243;-66
2023/11/01 00:34:46;;;;;;;13.95;5.72;;;;;;;;;;4966815;28;20204;-66
2023/11/01 00:37:12;;;;;;;8.75;5.53;;;;;;;;;;4967453;28;20255;-66
2023/11/01 00:39:37;;;;;;;9.13;4.63;;;;;;;;;;4972564;28;20178;-66
2023/11/01 00:42:03;;;;;;;9.40;4.88;;;;;;;;;;4963555;28;20224;-66
2023/11/01 00:44:28;;;;;;;15.30;5.85;;;;;;;;;;4969634;28;20181;-67
2023/11/01 00:46:53;;;;;;;12.25;4.47;;;;;;;;;;4971272;28;20168;-66
2023/11/01 00:49:18;;;;;;;13.00;5.68;;;;;;;;;;4970151;28;20176;-66
2023/11/01 00:51:43;;;;;;;8.85;4.65;;;;;;;;;;4974604;28;20211;-66
2023/11/01 00:54:08;;;;;;;12.75;5.38;;;;;;;;;;4973161;28;20724;-66
2023/11/01 00:56:34;;;;;;;12.40;5.00;;;;;;;;;;4970079;28;20267;-66
2023/11/01 00:58:59;;;;;;;9.98;4.47;;;;;;;;;;4974291;28;20196;-66
2023/11/01 01:01:24;;;;;;;8.05;5.50;;;;;;;;;;4958517;28;20638;-66
2023/11/01 01:03:49;;;;;;;10.90;5.72;;;;;;;;;;4967841;28;20186;-66
2023/11/01 01:06:15;;;;;;;16.70;5.55;;;;;;;;;;4971212;28;20193;-66
2023/11/01 01:08:40;;;;;;;10.73;5.20;;;;;;;;;;4970843;28;20587;-66
2023/11/01 01:11:05;;;;;;;10.73;4.32;;;;;;;;;;4978202;28;20713;-66
2023/11/01 01:13:31;;;;;;;9.32;5.28;;;;;;;;;;4972146;28;20235;-66
2023/11/01 01:15:56;;;;;;;6.70;5.05;;;;;;;;;;4974261;28;20722;-66
2023/11/01 01:18:21;;;;;;;11.93;4.75;;;;;;;;;;4972070;28;20706;-66
2023/11/01 01:20:47;;;;;;;12.98;6.10;;;;;;;;;;4974500;28;20184;-66
2023/11/01 01:23:13;;;;;;;11.20;5.97;;;;;;;;;;4972791;28;20184;-67
2023/11/01 01:25:38;;;;;;;11.30;6.13;;;;;;;;;;4974217;28;20199;-65
2023/11/01 01:28:03;;;;;;;11.80;5.80;;;;;;;;;;4973910;28;20562;-66
2023/11/01 01:30:28;;;;;;;13.35;5.55;;;;;;;;;;4957092;28;20300;-66
2023/11/01 01:32:53;;;;;;;8.95;5.28;;;;;;;;;;4955197;28;20192;-65
2023/11/01 01:35:19;;;;;;;13.50;5.25;;;;;;;;;;4968351;28;20204;-67
2023/11/01 01:37:44;;;;;;;12.02;5.15;;;;;;;;;;4954188;28;20208;-65
2023/11/01 01:40:09;;;;;;;8.80;4.93;;;;;;;;;;4953402;28;20184;-65
2023/11/01 01:42:35;;;;;;;11.23;4.70;;;;;;;;;;4954693;28;20177;-65
2023/11/01 01:45:00;;;;;;;10.20;5.68;;;;;;;;;;4963778;28;20671;-65
2023/11/01 01:47:25;;;;;;;9.38;5.10;;;;;;;;;;4966352;28;20549;-66
2023/11/01 01:49:52;;;;;;;11.68;5.65;;;;;;;;;;4957642;28;20248;-65
2023/11/01 01:52:17;;;;;;;11.88;5.18;;;;;;;;;;4956587;28;20693;-65
2023/11/01 01:54:42;;;;;;;11.73;4.75;;;;;;;;;;4969360;28;20196;-65
2023/11/01 01:57:09;;;;;;;10.65;5.20;;;;;;;;;;4962498;28;20176;-65
2023/11/01 01:59:35;;;;;;;11.32;4.82;;;;;;;;;;4962107;28;20468;-65
2023/11/01 02:02:01;;;;;;;6.68;4.22;;;;;;;;;;4953294;28;20226;-65
2023/11/01 02:04:26;;;;;;;8.23;4.40;;;;;;;;;;4955067;28;20660;-65
2023/11/01 02:06:52;;;;;;;10.18;4.50;;;;;;;;;;4965314;28;20200;-65
2023/11/01 02:09:17;;;;;;;9.13;4.25;;;;;;;;;;4954316;28;20184;-65
2023/11/01 02:11:42;;;;;;;6.80;4.57;;;;;;;;;;4953983;28;22004;-65
2023/11/01 02:14:08;;;;;;;9.15;4.15;;;;;;;;;;4955805;28;20204;-65
2023/11/01 02:16:33;;;;;;;14.63;4.63;;;;;;;;;;4952209;28;20208;-65
2023/11/01 02:18:58;;;;;;;8.70;4.68;;;;;;;;;;4953180;28;20208;-65
2023/11/01 02:21:24;;;;;;;11.00;4.28;;;;;;;;;;4950833;28;20663;-66
2023/11/01 02:23:49;;;;;;;10.55;4.47;;;;;;;;;;4955347;28;20192;-66
2023/11/01 02:26:14;;;;;;;8.95;3.90;;;;;;;;;;4952567;28;20923;-66
2023/11/01 02:28:39;;;;;;;8.77;4.35;;;;;;;;;;4949897;28;20185;-66
2023/11/01 02:31:05;;;;;;;11.20;3.80;;;;;;;;;;4954368;28;20198;-66
2023/11/01 02:33:30;;;;;;;8.05;4.22;;;;;;;;;;4952407;28;20723;-66
2023/11/01 02:35:55;;;;;;;4.53;3.10;;;;;;;;;;4956882;28;20208;-66
2023/11/01 02:38:20;;;;;;;7.55;3.28;;;;;;;;;;4951970;28;20259;-66
2023/11/01 02:40:46;;;;;;;10.82;3.90;;;;;;;;;;4951779;28;20231;-66
2023/11/01 02:43:11;;;;;;;7.85;3.80;;;;;;;;;;4951031;28;20256;-66
2023/11/01 02:45:36;;;;;;;8.13;3.72;;;;;;;;;;4953124;28;20702;-66
2023/11/01 02:48:01;;;;;;;7.05;3.78;;;;;;;;;;4954682;28;20560;-65
2023/11/01 02:50:27;;;;;;;6.90;4.00;;;;;;;;;;4952734;28;20254;-65
2023/11/01 02:52:52;;;;;;;7.07;3.45;;;;;;;;;;4953532;28;20192;-65
2023/11/01 02:55:17;;;;;;;7.05;3.00;;;;;;;;;;4955659;28;20281;-65
2023/11/01 02:57:43;;;;;;;7.38;2.92;;;;;;;;;;4962731;28;20192;-65
2023/11/01 03:00:17;;;;;;;11.82;2.88;;;;;;;;;;4969009;28;20331;-65
2023/11/01 03:02:43;;;;;;;7.82;3.17;;;;;;;;;;4971239;28;20578;-65
2023/11/01 03:05:09;;;;;;;8.82;3.20;;;;;;;;;;4970849;28;20235;-65
2023/11/01 03:07:34;;;;;;;6.70;3.13;;;;;;;;;;4969880;28;20208;-66
2023/11/01 03:10:00;;;;;;;11.00;3.95;;;;;;;;;;4969465;28;20829;-65
2023/11/01 03:12:25;;;;;;;10.75;5.05;;;;;;;;;;4970312;28;20184;-65
2023/11/01 03:14:50;;;;;;;9.55;4.90;;;;;;;;;;4972716;28;20222;-65
2023/11/01 03:17:15;;;;;;;10.32;5.10;;;;;;;;;;4968624;28;20172;-65
2023/11/01 03:19:40;;;;;;;8.02;4.00;;;;;;;;;;4971150;28;20200;-66
2023/11/01 03:22:06;;;;;;;9.27;4.70;;;;;;;;;;4973691;28;20710;-65
2023/11/01 03:24:31;;;;;;;11.10;4.57;;;;;;;;;;4969890;28;20194;-65
2023/11/01 03:26:58;;;;;;;7.95;4.78;;;;;;;;;;4966538;28;20254;-65
2023/11/01 03:29:23;;;;;;;14.38;5.22;;;;;;;;;;4964468;28;20652;-66
2023/11/01 03:31:48;;;;;;;9.68;4.60;;;;;;;;;;4951725;28;20187;-66
2023/11/01 03:34:13;;;;;;;12.93;4.82;;;;;;;;;;4952149;28;20228;-66
2023/11/01 03:36:39;;;;;;;9.32;4.80;;;;;;;;;;4950758;28;20209;-66
2023/11/01 03:39:04;;;;;;;8.40;4.80;;;;;;;;;;4951766;28;20633;-66
2023/11/01 03:41:30;;;;;;;11.38;4.72;;;;;;;;;;4951958;28;20188;-66
2023/11/01 03:43:55;;;;;;;6.78;4.50;;;;;;;;;;4952311;28;20180;-65
2023/11/01 03:46:20;;;;;;;13.35;5.93;;;;;;;;;;4950489;28;20291;-67
2023/11/01 03:48:48;;;;;;;8.65;5.60;;;;;;;;;;4953845;28;20570;-66
2023/11/01 03:51:13;;;;;;;9.73;5.13;;;;;;;;;;4948843;28;20185;-66
2023/11/01 03:53:38;;;;;;;10.35;5.20;;;;;;;;;;4950030;28;20239;-66
2023/11/01 03:56:04;;;;;;;7.70;4.63;;;;;;;;;;4949179;28;20208;-66
2023/11/01 03:58:29;;;;;;;7.10;4.55;;;;;;;;;;4950801;28;20617;-66
2023/11/01 04:00:56;;;;;;;10.30;4.65;;;;;;;;;;4950831;28;20176;-66
2023/11/01 04:03:21;;;;;;;5.85;4.68;;;;;;;;;;4953587;28;20184;-66
2023/11/01 04:05:47;;;;;;;6.07;3.60;;;;;;;;;;4950222;28;20555;-66
2023/11/01 04:08:12;;;;;;;6.82;4.18;;;;;;;;;;4950678;28;20184;-66
2023/11/01 04:10:37;;;;;;;10.95;3.83;;;;;;;;;;4950358;28;20203;-66
2023/11/01 04:13:04;;;;;;;6.03;3.10;;;;;;;;;;4950383;28;21080;-66
2023/11/01 04:15:29;;;;;;;16.98;3.95;;;;;;;;;;4950144;28;20254;-66
2023/11/01 04:17:55;;;;;;;7.13;3.60;;;;;;;;;;4951882;28;20282;-66
2023/11/01 04:20:20;;;;;;;5.32;3.22;;;;;;;;;;4951217;28;20184;-66
2023/11/01 04:22:45;;;;;;;4.93;3.65;;;;;;;;;;4952372;28;20263;-66
2023/11/01 04:25:10;;;;;;;5.72;3.28;;;;;;;;;;4950529;28;20200;-66
2023/11/01 04:27:39;;;;;;;6.53;3.67;;;;;;;;;;4950474;28;20298;-66
2023/11/01 04:30:06;;;;;;;5.45;3.53;;;;;;;;;;4950270;28;20180;-66
2023/11/01 04:32:31;;;;;;;6.15;3.63;;;;;;;;;;4958621;28;20607;-66
2023/11/01 04:34:56;;;;;;;4.63;3.35;;;;;;;;;;4970242;28;20196;-67
2023/11/01 04:37:23;;;;;;;5.53;3.20;;;;;;;;;;4968587;28;20259;-66
2023/11/01 04:39:49;;;;;;;4.65;3.97;;;;;;;;;;4969231;28;20172;-67
2023/11/01 04:42:15;;;;;;;4.00;3.30;;;;;;;;;;4967429;28;20173;-67
2023/11/01 04:44:41;;;;;;;4.20;3.47;;;;;;;;;;4968213;28;20569;-66
2023/11/01 04:47:06;;;;;;;5.40;4.10;;;;;;;;;;4969753;28;20235;-66
2023/11/01 04:49:31;;;;;;;6.30;4.32;;;;;;;;;;4968988;28;20200;-67
2023/11/01 04:51:56;;;;;;;12.32;5.03;;;;;;;;;;4966688;28;20212;-66
2023/11/01 04:54:22;;;;;;;7.40;5.22;;;;;;;;;;4962489;28;20192;-66
2023/11/01 04:56:47;;;;;;;8.40;5.07;;;;;;;;;;4971195;28;20276;-67
2023/11/01 04:59:12;;;;;;;7.18;5.65;;;;;;;;;;4965519;28;20711;-66
2023/11/01 05:01:37;;;;;;;8.65;5.68;;;;;;;;;;4967789;28;20172;-66
2023/11/01 05:04:02;;;;;;;12.80;6.22;;;;;;;;;;4966840;28;20236;-66
2023/11/01 05:06:28;;;;;;;9.95;6.95;;;;;;;;;;4968786;28;20212;-65
2023/11/01 05:08:53;;;;;;;12.48;6.45;;;;;;;;;;4969489;28;20192;-65
2023/11/01 05:11:19;;;;;;;11.35;7.47;;;;;;;;;;4968911;28;20200;-66
2023/11/01 05:13:45;;;;;;;12.23;7.30;;;;;;;;;;4974626;28;20664;-66
2023/11/01 05:16:10;;;;;;;16.15;8.18;;;;;;;;;;4964399;28;20219;-66
2023/11/01 05:18:35;;;;;;;10.10;7.05;;;;;;;;;;4965172;28;20193;-66
2023/11/01 05:21:01;;;;;;;13.85;7.50;;;;;;;;;;4967708;28;20184;-66
2023/11/01 05:23:26;;;;;;;11.07;7.63;;;;;;;;;;4972112;28;20180;-66
2023/11/01 05:25:51;;;;;;;12.50;7.72;;;;;;;;;;4972083;28;20227;-64
2023/11/01 05:28:16;;;;;;;10.50;7.63;;;;;;;;;;4973106;28;20187;-64
2023/11/01 05:30:42;;;;;;;16.95;7.47;;;;;;;;;;4973022;28;20188;-64
2023/11/01 05:33:07;;;;;;;11.80;8.15;;;;;;;;;;4961278;28;20187;-65
2023/11/01 05:35:36;;;;;;;13.82;8.73;;;;;;;;;;4954162;28;20283;-65
2023/11/01 05:38:01;;;;;;;12.63;8.50;;;;;;;;;;4952968;28;21755;-65
2023/11/01 05:40:27;;;;;;;15.77;8.98;;;;;;;;;;4953719;28;20192;-65
2023/11/01 05:42:52;;;;;;;15.23;8.93;;;;;;;;;;4954172;28;20733;-66
2023/11/01 05:45:17;;;;;;;17.52;9.40;;;;;;;;;;4953038;28;20216;-66
2023/11/01 05:47:49;;;;;;;15.88;9.27;;;;;;;;;;4952005;28;20362;-65
2023/11/01 05:50:15;;;;;;;14.50;8.70;;;;;;;;;;4954180;28;20270;-65
2023/11/01 05:52:40;;;;;;;14.57;8.07;;;;;;;;;;4956663;28;20656;-65
2023/11/01 05:55:06;;;;;;;19.15;8.60;;;;;;;;;;4953482;28;20323;-66
2023/11/01 05:57:31;;;;;;;15.13;9.55;;;;;;;;;;4951876;28;20184;-66
2023/11/01 05:59:57;;;;;;;14.20;7.78;;;;;;;;;;4953221;28;20223;-66
2023/11/01 06:02:22;;;;;;;17.75;7.60;;;;;;;;;;4952945;28;20180;-66
2023/11/01 06:04:47;;;;;;;14.55;6.70;;;;;;;;;;4953072;28;20690;-65
2023/11/01 06:07:12;;;;;;;14.07;7.78;;;;;;;;;;4952658;28;20232;-66
2023/11/01 06:09:38;;;;;;;15.45;6.45;;;;;;;;;;4951857;28;20692;-66
2023/11/01 06:12:05;;;;;;;14.68;6.22;;;;;;;;;;4953034;28;20268;-66
2023/11/01 06:14:31;;;;;;;18.15;7.20;;;;;;;;;;4952729;28;20706;-65
2023/11/01 06:16:57;;;;;;;12.63;5.72;;;;;;;;;;4950129;28;22169;-65
2023/11/01 06:19:22;;;;;;;24.92;6.70;;;;;;;;;;4954202;28;20259;-65
2023/11/01 06:21:48;;;;;;;14.95;5.90;;;;;;;;;;4952419;28;20813;-65
2023/11/01 06:24:14;;;;;;;12.18;5.10;;;;;;;;;;4952390;28;20793;-65
2023/11/01 06:26:39;;;;;;;13.48;5.32;;;;;;;;;;4951108;28;20267;-65
2023/11/01 06:29:04;;;;;;;12.40;5.88;;;;;;;;;;4952515;28;20230;-65
2023/11/01 06:31:30;;;;;;;13.43;5.45;;;;;;;;;;4951125;28;20184;-65
2023/11/01 06:33:55;;;;;;;13.98;5.05;;;;;;;;;;4952038;28;20219;-65
2023/11/01 06:36:20;;;;;;;13.57;4.45;;;;;;;;;;4954300;28;20211;-66
2023/11/01 06:38:46;;;;;;;12.40;5.40;;;;;;;;;;4948578;28;20216;-66
2023/11/01 06:41:11;;;;;;;9.02;6.07;;;;;;;;;;4952735;28;20188;-65
2023/11/01 06:43:36;;;;;;;12.25;5.55;;;;;;;;;;4942359;28;20202;-66
2023/11/01 06:46:01;;;;;;;19.88;6.38;;;;;;;;;;4950216;28;20588;-66
2023/11/01 06:48:26;;;;;;;12.23;4.63;;;;;;;;;;4955060;28;20184;-66
2023/11/01 06:50:52;;;;;;;17.13;5.45;;;;;;;;;;4954288;28;20566;-65
2023/11/01 06:53:17;;;;;;;15.73;5.97;;;;;;;;;;4950622;28;20188;-66
2023/11/01 06:55:42;;;;;;;12.48;5.45;;;;;;;;;;4952059;28;20219;-65
2023/11/01 06:58:07;;;;;;;16.15;4.97;;;;;;;;;;4957907;28;20259;-66
2023/11/01 07:00:33;;;;;;;11.27;5.30;;;;;;;;;;4964656;28;20562;-66
2023/11/01 07:02:59;;;;;;;13.95;5.22;;;;;;;;;;4969137;28;20176;-65
2023/11/01 07:05:24;;;;;;;11.25;5.38;;;;;;;;;;4969740;28;20203;-65
2023/11/01 07:07:49;;;;;;;17.83;4.43;;;;;;;;;;4972137;28;20481;-65
2023/11/01 07:10:16;;;;;;;11.13;4.68;;;;;;;;;;4972485;28;20223;-65
2023/11/01 07:12:42;;;;;;;8.30;3.60;;;;;;;;;;4972015;28;20315;-64
2023/11/01 07:15:08;;;;;;;10.75;4.00;;;;;;;;;;4972151;28;20282;-66
2023/11/01 07:17:33;;;;;;;11.85;4.07;;;;;;;;;;4970539;28;20188;-65
2023/11/01 07:19:58;;;;;;;15.73;5.43;;;;;;;;;;4967443;28;20180;-65
2023/11/01 07:22:24;;;;;;;7.45;4.75;;;;;;;;;;4969565;28;20618;-65
2023/11/01 07:24:49;;;;;;;9.57;3.40;;;;;;;;;;4971060;28;20231;-65
2023/11/01 07:27:14;;;;;;;8.90;4.18;;;;;;;;;;4971079;28;20272;-65
2023/11/01 07:29:39;;;;;;;11.02;4.20;;;;;;;;;;4962456;28;20569;-65
2023/11/01 07:32:05;;;;;;;8.90;4.03;;;;;;;;;;4951286;28;21146;-65
2023/11/01 07:34:30;;;;;;;26.30;4.30;;;;;;;;;;4954600;28;20194;-65
2023/11/01 07:36:55;;;;;;;6.00;2.92;;;;;;;;;;4954184;28;20763;-65
2023/11/01 07:39:21;;;;;;;8.88;3.45;;;;;;;;;;4953694;28;20270;-65
2023/11/01 07:41:47;;;;;;;4.80;3.08;;;;;;;;;;4952343;28;20667;-65
2023/11/01 07:44:12;;;;;;;8.18;3.67;;;;;;;;;;4951366;28;20197;-65
2023/11/01 07:46:37;;;;;;;13.30;3.13;;;;;;;;;;4951799;28;20197;-65
2023/11/01 07:49:02;;;;;;;8.07;2.92;;;;;;;;;;4955022;28;20578;-65
2023/11/01 07:51:28;;;;;;;10.90;3.15;;;;;;;;;;4953831;28;22214;-65
2023/11/01 07:53:53;;;;;;;6.30;3.38;;;;;;;;;;4951699;28;20184;-65
2023/11/01 07:56:19;;;;;;;13.23;2.55;;;;;;;;;;4952288;28;20203;-65
2023/11/01 07:58:45;;;;;;;7.80;2.83;;;;;;;;;;4954923;28;20216;-65
2023/11/01 08:01:11;;;;;;;11.38;4.35;;;;;;;;;;4952276;28;20538;-66
2023/11/01 08:03:37;;;;;;;13.10;2.60;;;;;;;;;;4952706;28;20187;-66
2023/11/01 08:06:02;;;;;;;9.27;2.30;;;;;;;;;;4952419;28;20642;-65
2023/11/01 08:08:27;;;;;;;10.23;3.30;;;;;;;;;;4951133;28;20176;-65
2023/11/01 08:10:53;;;;;;;9.35;2.58;;;;;;;;;;4952628;28;20220;-65
2023/11/01 08:13:18;;;;;;;12.00;2.97;;;;;;;;;;4951291;28;21832;-65
2023/11/01 08:15:43;;;;;;;6.43;2.50;;;;;;;;;;4951597;28;20957;-66
2023/11/01 08:18:10;;;;;;;6.55;2.72;;;;;;;;;;4951304;28;20910;-64
2023/11/01 08:20:35;;;;;;;5.32;2.20;;;;;;;;;;4952107;28;20688;-65
2023/11/01 08:23:00;;;;;;;11.10;2.75;;;;;;;;;;4952361;28;20188;-66
2023/11/01 08:25:25;;;;;;;9.77;2.53;;;;;;;;;;4949905;28;20495;-65
2023/11/01 08:27:51;;;;;;;6.10;2.47;;;;;;;;;;4948478;28;20181;-65
2023/11/01 08:30:16;;;;;;;9.05;2.35;;;;;;;;;;4949219;28;20204;-65
2023/11/01 08:32:42;;;;;;;7.07;2.78;;;;;;;;;;4952336;28;20191;-65
2023/11/01 08:35:08;;;;;;;8.63;2.92;;;;;;;;;;4949539;28;20760;-65
2023/11/01 08:37:33;;;;;;;13.05;3.22;;;;;;;;;;4949586;28;20243;-66
2023/11/01 08:39:58;;;;;;;11.15;2.85;;;;;;;;;;4952207;28;20595;-65
2023/11/01 08:42:24;;;;;;;5.80;2.20;;;;;;;;;;4951909;28;20185;-65
2023/11/01 08:44:49;;;;;;;5.65;2.50;;;;;;;;;;4951359;28;20558;-65
2023/11/01 08:47:31;;;;;;;9.80;3.85;;;;;;;;;;4950752;28;20838;-65
2023/11/01 08:49:56;;;;;;;7.95;2.08;;;;;;;;;;4951785;28;20347;-65
2023/11/01 08:52:21;;;;;;;9.30;2.80;;;;;;;;;;4953813;28;20196;-65
2023/11/01 08:54:47;;;;;;;9.98;2.42;;;;;;;;;;4951947;28;20212;-65
2023/11/01 08:57:12;;;;;;;10.02;3.28;;;;;;;;;;4962521;28;20199;-65
2023/11/01 08:59:39;;;;;;;9.20;3.25;;;;;;;;;;4974517;28;20711;-65
2023/11/01 09:02:04;;;;;;;8.20;3.67;;;;;;;;;;4974950;28;20261;-65
2023/11/01 09:04:30;;;;;;;6.78;2.50;;;;;;;;;;4973628;28;21350;-65
2023/11/01 09:06:55;;;;;;;9.95;3.30;;;;;;;;;;4975080;28;20192;-65
2023/11/01 09:09:20;;;;;;;11.77;2.92;;;;;;;;;;4974452;28;20537;-65
2023/11/01 09:11:45;;;;;;;11.30;2.25;;;;;;;;;;4974740;28;20203;-65
2023/11/01 09:14:11;;;;;;;13.48;2.17;;;;;;;;;;4972742;28;20196;-65
2023/11/01 09:16:36;;;;;;;11.45;3.03;;;;;;;;;;4974272;28;20232;-65
2023/11/01 09:19:01;;;;;;;5.13;2.22;;;;;;;;;;4971921;28;20237;-66
2023/11/01 09:21:26;;;;;;;8.57;2.95;;;;;;;;;;4975243;28;20184;-65
2023/11/01 09:23:51;;;;;;;11.35;2.55;;;;;;;;;;4974404;28;20620;-65
2023/11/01 09:26:18;;;;;;;8.05;1.48;;;;;;;;;;4974071;28;20196;-65
2023/11/01 09:28:43;;;;;;;6.88;2.40;;;;;;;;;;4965958;28;20238;-64
2023/11/01 09:31:08;;;;;;;6.72;1.75;;;;;;;;;;4954833;28;20184;-65
2023/11/01 09:33:35;;;;;;;10.30;2.25;;;;;;;;;;4954480;28;20188;-64
2023/11/01 09:36:00;;;;;;;5.65;1.77;;;;;;;;;;4954888;28;20703;-64
2023/11/01 09:38:25;;;;;;;4.80;1.70;;;;;;;;;;4953679;28;20215;-64
2023/11/01 09:40:51;;;;;;;6.30;1.90;;;;;;;;;;4954736;28;20180;-65
2023/11/01 09:43:18;;;;;;;12.43;1.83;;;;;;;;;;4954430;28;20257;-65
2023/11/01 09:45:44;;;;;;;5.90;1.90;;;;;;;;;;4954170;28;20710;-64
2023/11/01 09:48:09;;;;;;;10.98;2.10;;;;;;;;;;4958445;28;20192;-64
2023/11/01 09:50:37;;;;;;;7.57;1.85;;;;;;;;;;4954010;28;20412;-65
2023/11/01 09:53:02;;;;;;;7.43;1.73;;;;;;;;;;4955246;28;20676;-64
2023/11/01 09:55:28;;;;;;;3.58;1.45;;;;;;;;;;4952951;28;20212;-65
2023/11/01 09:57:53;;;;;;;3.25;1.90;;;;;;;;;;4952925;28;20204;-65
2023/11/01 10:00:19;;;;;;;8.27;1.73;;;;;;;;;;4953510;28;20192;-65
2023/11/01 10:02:45;;;;;;;5.80;1.83;;;;;;;;;;4956997;28;20214;-64
2023/11/01 10:05:10;;;;;;;5.63;1.95;;;;;;;;;;4953796;28;20842;-65
2023/11/01 10:07:35;;;;;;;6.35;1.77;;;;;;;;;;4959096;28;20180;-66
2023/11/01 10:10:02;;;;;;;8.15;1.90;;;;;;;;;;4952629;28;20194;-66
2023/11/01 10:12:27;;;;;;;6.45;1.98;;;;;;;;;;4953309;28;20182;-66
2023/11/01 10:14:53;;;;;;;5.13;2.00;;;;;;;;;;4953420;28;21954;-65
2023/11/01 10:17:19;;;;;;;5.40;1.83;;;;;;;;;;4952328;28;20302;-66
2023/11/01 10:19:44;;;;;;;5.15;1.27;;;;;;;;;;4953152;28;20212;-65
2023/11/01 10:22:12;;;;;;;4.80;1.58;;;;;;;;;;4952049;28;20223;-66
2023/11/01 10:24:39;;;;;;;18.67;2.65;;;;;;;;;;4953028;28;20183;-66
2023/11/01 10:27:06;;;;;;;6.60;1.23;;;;;;;;;;4952889;28;20213;-66
2023/11/01 10:29:40;;;;;;;7.95;1.58;;;;;;;;;;4952806;28;20674;-66
2023/11/01 10:32:07;;;;;;;3.22;1.20;;;;;;;;;;4956266;28;20183;-65
2023/11/01 10:34:32;;;;;;;5.85;2.00;;;;;;;;;;4952976;28;20215;-66
2023/11/01 10:36:58;;;;;;;3.13;1.20;;;;;;;;;;4958763;28;20271;-66
2023/11/01 10:39:24;;;;;;;6.15;2.22;;;;;;;;;;4954026;28;20805;-66
2023/11/01 10:41:51;;;;;;;4.35;1.17;;;;;;;;;;4953073;28;20185;-66
2023/11/01 10:44:16;;;;;;;8.07;1.70;;;;;;;;;;4952476;28;20180;-66
2023/11/01 10:46:42;;;;;;;7.93;1.40;;;;;;;;;;4952911;28;21087;-66
2023/11/01 10:49:09;;;;;;;3.80;1.20;;;;;;;;;;4952755;28;20236;-66
2023/11/01 10:51:36;;;;;;;6.38;1.30;;;;;;;;;;4956018;28;20690;-66
2023/11/01 10:54:02;;;;;;;3.85;1.60;;;;;;;;;;4952821;28;20193;-66
2023/11/01 10:56:27;;;;;;;8.70;1.40;;;;;;;;;;4958300;28;20207;-66
2023/11/01 10:58:54;;;;;;;5.72;1.63;;;;;;;;;;4972601;28;20208;-66
2023/11/01 11:01:24;;;;;;;8.45;1.27;;;;;;;;;;4971371;28;20180;-66
2023/11/01 11:04:02;;;;;;;5.93;1.38;;;;;;;;;;4971272;28;20646;-66
2023/11/01 11:06:31;;;;;;;6.40;1.58;;;;;;;;;;4969986;28;20237;-66
2023/11/01 11:09:14;;;;;;;7.78;1.45;;;;;;;;;;4972043;28;20188;-66
2023/11/01 11:11:40;;;;;;;3.70;1.63;;;;;;;;;;4972045;28;20188;-66
2023/11/01 11:14:25;;;;;;;6.32;1.10;;;;;;;;;;4968616;28;20207;-66
2023/11/01 11:17:06;;;;;;;3.60;1.58;;;;;;;;;;4968071;28;20184;-66
2023/11/01 11:19:51;;;;;;;7.07;1.33;;;;;;;;;;4971935;28;20208;-66
2023/11/01 11:22:16;;;;;;;9.93;1.65;;;;;;;;;;4969396;28;20656;-66
2023/11/01 11:24:41;;;;;;;4.50;1.50;;;;;;;;;;4972237;28;20219;-66
2023/11/01 11:27:27;;;;;;;4.13;1.20;;;;;;;;;;4971948;28;20220;-65
2023/11/01 11:29:52;;;;;;;11.00;1.58;;;;;;;;;;4968056;28;20230;-66
2023/11/01 11:32:21;;;;;;;7.68;1.98;;;;;;;;;;4952833;28;20621;-66
2023/11/01 11:34:46;;;;;;;10.48;1.80;;;;;;;;;;4952504;28;20282;-65
2023/11/01 11:37:12;;;;;;;3.90;1.33;;;;;;;;;;4951555;28;21107;-66
2023/11/01 11:40:07;;;;;;;2.05;1.35;;;;;;;;;;4952471;28;20212;-66
2023/11/01 11:42:44;;;;;;;5.20;2.10;;;;;;;;;;4939763;28;20286;-66
2023/11/01 11:45:09;;;;;;;6.88;1.52;;;;;;;;;;4951176;28;20247;-66
2023/11/01 11:47:35;;;;;;;6.18;1.30;;;;;;;;;;4951458;28;21011;-63
2023/11/01 11:50:09;;;;;;;4.95;1.30;;;;;;;;;;4956124;28;20180;-65
2023/11/01 11:52:35;;;;;;;2.78;1.35;;;;;;;;;;4955111;28;20196;-66
2023/11/01 11:55:01;;;;;;;3.83;1.27;;;;;;;;;;4951816;28;20207;-65
2023/11/01 11:57:26;;;;;;;2.00;0.93;;;;;;;;;;4951918;28;20679;-65
2023/11/01 11:59:59;;;;;;;3.50;1.40;;;;;;;;;;4951703;28;20216;-65
2023/11/01 12:02:25;;;;;;;5.40;1.92;;;;;;;;;;4951964;28;20244;-65
2023/11/01 12:04:51;;;;;;;4.80;0.95;;;;;;;;;;4954511;28;20668;-65
2023/11/01 12:07:21;;;;;;;4.20;1.33;;;;;;;;;;4953283;28;20183;-65
2023/11/01 12:09:47;;;;;;;12.07;2.22;;;;;;;;;;4951350;28;20559;-65
2023/11/01 12:12:13;;;;;;;4.50;1.58;;;;;;;;;;4952119;28;20798;-65
2023/11/01 12:14:39;;;;;;;5.88;1.60;;;;;;;;;;4951804;28;20362;-65
2023/11/01 12:17:05;;;;;;;3.58;1.15;;;;;;;;;;4950733;28;20261;-64
2023/11/01 12:19:32;;;;;;;4.30;1.42;;;;;;;;;;4952935;28;20212;-64
2023/11/01 12:21:58;;;;;;;4.78;1.23;;;;;;;;;;4951358;28;20192;-64
2023/11/01 12:24:38;;;;;;;7.10;1.58;;;;;;;;;;4951625;28;20184;-65
2023/11/01 12:27:04;;;;;;;4.82;1.40;;;;;;;;;;4951813;28;20192;-64
2023/11/01 12:29:30;;;;;;;7.25;1.65;;;;;;;;;;4951502;28;20199;-64
2023/11/01 12:32:15;;;;;;;4.65;1.27;;;;;;;;;;4952789;28;20268;-64
2023/11/01 12:34:50;;;;;;;5.00;1.52;;;;;;;;;;4956416;28;20207;-64
2023/11/01 12:37:15;;;;;;;6.22;1.30;;;;;;;;;;4955204;28;20209;-65
2023/11/01 12:39:58;;;;;;;7.47;1.83;;;;;;;;;;4966131;28;20579;-65
2023/11/01 12:42:24;;;;;;;4.00;1.40;;;;;;;;;;4955758;28;20184;-65
2023/11/01 12:44:50;;;;;;;4.10;1.30;;;;;;;;;;4955273;28;21721;-65
2023/11/01 12:47:16;;;;;;;3.67;1.35;;;;;;;;;;4955009;28;20630;-64
2023/11/01 12:49:41;;;;;;;3.10;1.67;;;;;;;;;;4962154;28;20189;-64
2023/11/01 12:52:10;;;;;;;5.70;0.90;;;;;;;;;;4955513;28;20196;-64
2023/11/01 12:54:35;;;;;;;5.32;1.70;;;;;;;;;;4955388;28;20184;-64
2023/11/01 12:57:01;;;;;;;7.43;1.77;;;;;;;;;;4966566;28;20193;-64
2023/11/01 12:59:26;;;;;;;8.27;1.33;;;;;;;;;;4974936;28;20283;-64
2023/11/01 13:01:51;;;;;;;5.28;1.20;;;;;;;;;;4974639;28;20418;-64
2023/11/01 13:04:17;;;;;;;6.55;2.00;;;;;;;;;;4974594;28;20220;-64
2023/11/01 13:06:42;;;;;;;4.15;1.25;;;;;;;;;;4974049;28;20196;-65
2023/11/01 13:09:08;;;;;;;4.10;1.30;;;;;;;;;;4975586;28;20259;-65
2023/11/01 13:11:33;;;;;;;4.38;1.15;;;;;;;;;;4973626;28;20256;-65
2023/11/01 13:13:58;;;;;;;2.80;1.02;;;;;;;;;;4974906;28;20240;-64
2023/11/01 13:16:23;;;;;;;1.38;1.27;;;;;;;;;;4973813;28;20262;-65
2023/11/01 13:18:49;;;;;;;4.40;1.20;;;;;;;;;;4971741;28;20691;-66
2023/11/01 13:21:14;;;;;;;4.53;1.20;;;;;;;;;;4973407;28;20192;-65
2023/11/01 13:23:39;;;;;;;8.40;2.30;;;;;;;;;;4974682;28;20188;-65
2023/11/01 13:26:05;;;;;;;3.08;1.20;;;;;;;;;;4974709;28;20212;-65
2023/11/01 13:28:31;;;;;;;5.00;1.20;;;;;;;;;;4973715;28;20734;-66
2023/11/01 13:30:56;;;;;;;2.10;1.10;;;;;;;;;;4955334;28;20188;-65
2023/11/01 13:33:21;;;;;;;4.68;1.08;;;;;;;;;;4955901;28;20184;-64
2023/11/01 13:35:46;;;;;;;3.88;1.20;;;;;;;;;;4954084;28;20208;-64
2023/11/01 13:38:11;;;;;;;4.53;1.35;;;;;;;;;;4954286;28;20583;-65
2023/11/01 13:40:37;;;;;;;3.50;1.00;;;;;;;;;;4956159;28;20225;-65
2023/11/01 13:43:02;;;;;;;6.20;1.55;;;;;;;;;;4970369;28;20180;-65
2023/11/01 13:45:27;;;;;;;2.92;0.95;;;;;;;;;;4974330;28;20272;-65
2023/11/01 13:47:52;;;;;;;4.90;1.13;;;;;;;;;;4971286;28;20187;-65
2023/11/01 13:50:18;;;;;;;2.65;1.20;;;;;;;;;;4972685;28;20184;-65
2023/11/01 13:52:43;;;;;;;10.00;1.38;;;;;;;;;;4974041;28;20172;-64
2023/11/01 13:55:09;;;;;;;2.67;0.85;;;;;;;;;;4974316;28;20239;-64
2023/11/01 13:57:34;;;;;;;2.80;0.80;;;;;;;;;;4956756;28;20827;-64
2023/11/01 13:59:59;;;;;;;2.72;1.02;;;;;;;;;;4954897;28;20282;-64
2023/11/01 14:02:25;;;;;;;3.70;1.45;;;;;;;;;;4953329;28;20715;-65
2023/11/01 14:04:50;;;;;;;3.28;0.70;;;;;;;;;;4954557;28;20219;-65
2023/11/01 14:07:15;;;;;;;7.47;0.80;;;;;;;;;;4958425;28;20181;-65
2023/11/01 14:09:40;;;;;;;4.45;1.27;;;;;;;;;;4953692;28;20215;-65
2023/11/01 14:12:06;;;;;;;3.15;1.15;;;;;;;;;;4953201;28;20284;-65
2023/11/01 14:14:31;;;;;;;3.90;1.10;;;;;;;;;;4955726;28;20535;-65
2023/11/01 14:16:56;;;;;;;2.08;0.80;;;;;;;;;;4953208;28;20250;-64
2023/11/01 14:19:22;;;;;;;6.30;1.30;;;;;;;;;;4955040;28;20610;-64
2023/11/01 14:21:47;;;;;;;2.78;0.85;;;;;;;;;;4953733;28;20759;-65
2023/11/01 14:24:12;;;;;;;2.17;1.30;;;;;;;;;;4953512;28;20196;-65
2023/11/01 14:26:37;;;;;;;2.28;0.90;;;;;;;;;;4953554;28;21540;-65
2023/11/01 14:29:02;;;;;;;3.97;0.95;;;;;;;;;;4952039;28;20242;-65
2023/11/01 14:31:28;;;;;;;2.63;1.23;;;;;;;;;;4954967;28;20624;-65